sensor_id;sensor_type;location;lat;lon;timestamp;P1;durP1;ratioP1;P2;durP2;ratioP2
38479;SDS011;62333;51.980;5.934;2023-08-06T00:00:22;4.07;;;2.90;;
38479;SDS011;62333;51.980;5.934;2023-08-06T00:02:48;5.70;;;2.72;;
38479;SDS011;62333;51.980;5.934;2023-08-06T00:05:14;6.78;;;2.08;;
38479;SDS011;62333;51.980;5.934;2023-08-06T00:07:45;3.50;;;2.05;;
38479;SDS011;62333;51.980;5.934;2023-08-06T00:10:11;4.10;;;2.85;;
38479;SDS011;62333;51.980;5.934;2023-08-06T00:12:37;3.08;;;1.60;;
38479;SDS011;62333;51.980;5.934;2023-08-06T00:15:03;3.47;;;1.63;;
38479;SDS011;62333;51.980;5.934;2023-08-06T00:17:29;5.28;;;3.22;;
38479;SDS011;62333;51.980;5.934;2023-08-06T00:19:54;6.63;;;2.83;;
38479;SDS011;62333;51.980;5.934;2023-08-06T00:22:20;5.10;;;3.17;;
38479;SDS011;62333;51.980;5.934;2023-08-06T00:24:46;4.22;;;1.80;;
38479;SDS011;62333;51.980;5.934;2023-08-06T00:27:11;4.32;;;2.58;;
38479;SDS011;62333;51.980;5.934;2023-08-06T00:29:37;2.80;;;2.03;;
38479;SDS011;62333;51.980;5.934;2023-08-06T00:32:03;4.90;;;2.22;;
38479;SDS011;62333;51.980;5.934;2023-08-06T00:34:28;2.78;;;1.95;;
38479;SDS011;62333;51.980;5.934;2023-08-06T00:36:54;4.78;;;2.33;;
38479;SDS011;62333;51.980;5.934;2023-08-06T00:39:20;4.32;;;1.98;;
38479;SDS011;62333;51.980;5.934;2023-08-06T00:41:45;3.17;;;1.90;;
38479;SDS011;62333;51.980;5.934;2023-08-06T00:44:11;4.22;;;2.20;;
38479;SDS011;62333;51.980;5.934;2023-08-06T00:46:37;3.85;;;1.90;;
38479;SDS011;62333;51.980;5.934;2023-08-06T00:49:03;4.30;;;2.15;;
38479;SDS011;62333;51.980;5.934;2023-08-06T00:51:29;3.00;;;1.65;;
38479;SDS011;62333;51.980;5.934;2023-08-06T00:53:56;4.00;;;2.67;;
38479;SDS011;62333;51.980;5.934;2023-08-06T00:56:22;5.82;;;2.33;;
38479;SDS011;62333;51.980;5.934;2023-08-06T00:58:49;3.53;;;2.28;;
38479;SDS011;62333;51.980;5.934;2023-08-06T01:01:15;5.53;;;3.30;;
38479;SDS011;62333;51.980;5.934;2023-08-06T01:03:40;6.85;;;3.92;;
38479;SDS011;62333;51.980;5.934;2023-08-06T01:06:06;4.60;;;2.67;;
38479;SDS011;62333;51.980;5.934;2023-08-06T01:08:48;5.50;;;2.80;;
38479;SDS011;62333;51.980;5.934;2023-08-06T01:17:20;5.18;;;4.10;;
38479;SDS011;62333;51.980;5.934;2023-08-06T01:19:48;4.25;;;2.60;;
38479;SDS011;62333;51.980;5.934;2023-08-06T01:22:14;4.82;;;2.92;;
38479;SDS011;62333;51.980;5.934;2023-08-06T01:24:40;3.88;;;2.10;;
38479;SDS011;62333;51.980;5.934;2023-08-06T01:27:11;5.35;;;2.78;;
38479;SDS011;62333;51.980;5.934;2023-08-06T01:29:47;4.03;;;1.83;;
38479;SDS011;62333;51.980;5.934;2023-08-06T01:32:20;2.40;;;1.30;;
38479;SDS011;62333;51.980;5.934;2023-08-06T01:34:46;3.47;;;1.50;;
38479;SDS011;62333;51.980;5.934;2023-08-06T01:37:13;4.15;;;2.03;;
38479;SDS011;62333;51.980;5.934;2023-08-06T01:39:39;3.90;;;1.77;;
38479;SDS011;62333;51.980;5.934;2023-08-06T01:42:07;2.47;;;1.55;;
38479;SDS011;62333;51.980;5.934;2023-08-06T01:44:33;4.57;;;2.13;;
38479;SDS011;62333;51.980;5.934;2023-08-06T01:46:59;5.47;;;2.47;;
38479;SDS011;62333;51.980;5.934;2023-08-06T01:49:25;4.03;;;2.13;;
38479;SDS011;62333;51.980;5.934;2023-08-06T01:51:50;4.78;;;3.67;;
38479;SDS011;62333;51.980;5.934;2023-08-06T01:54:16;4.88;;;2.88;;
38479;SDS011;62333;51.980;5.934;2023-08-06T01:56:41;4.25;;;2.90;;
38479;SDS011;62333;51.980;5.934;2023-08-06T01:59:07;4.65;;;3.08;;
38479;SDS011;62333;51.980;5.934;2023-08-06T02:01:33;5.10;;;3.72;;
38479;SDS011;62333;51.980;5.934;2023-08-06T02:03:58;4.43;;;3.47;;
38479;SDS011;62333;51.980;5.934;2023-08-06T02:06:24;4.43;;;3.85;;
38479;SDS011;62333;51.980;5.934;2023-08-06T02:08:49;5.03;;;3.70;;
38479;SDS011;62333;51.980;5.934;2023-08-06T02:11:15;5.90;;;3.70;;
38479;SDS011;62333;51.980;5.934;2023-08-06T02:13:41;5.07;;;4.13;;
38479;SDS011;62333;51.980;5.934;2023-08-06T02:16:07;7.38;;;4.43;;
38479;SDS011;62333;51.980;5.934;2023-08-06T02:18:36;7.45;;;4.82;;
38479;SDS011;62333;51.980;5.934;2023-08-06T02:21:01;5.22;;;4.00;;
38479;SDS011;62333;51.980;5.934;2023-08-06T02:23:27;5.60;;;3.83;;
38479;SDS011;62333;51.980;5.934;2023-08-06T02:28:25;5.35;;;3.35;;
38479;SDS011;62333;51.980;5.934;2023-08-06T02:30:51;8.02;;;4.22;;
38479;SDS011;62333;51.980;5.934;2023-08-06T02:33:17;5.85;;;3.60;;
38479;SDS011;62333;51.980;5.934;2023-08-06T02:35:42;6.68;;;4.65;;
38479;SDS011;62333;51.980;5.934;2023-08-06T02:38:08;6.28;;;3.88;;
38479;SDS011;62333;51.980;5.934;2023-08-06T02:40:33;4.70;;;3.50;;
38479;SDS011;62333;51.980;5.934;2023-08-06T02:42:59;4.05;;;3.00;;
38479;SDS011;62333;51.980;5.934;2023-08-06T02:45:25;6.50;;;2.85;;
38479;SDS011;62333;51.980;5.934;2023-08-06T02:47:50;4.40;;;3.33;;
38479;SDS011;62333;51.980;5.934;2023-08-06T02:50:16;4.55;;;2.95;;
38479;SDS011;62333;51.980;5.934;2023-08-06T02:52:41;5.07;;;3.40;;
38479;SDS011;62333;51.980;5.934;2023-08-06T02:55:07;5.40;;;2.95;;
38479;SDS011;62333;51.980;5.934;2023-08-06T02:57:33;4.70;;;3.25;;
38479;SDS011;62333;51.980;5.934;2023-08-06T02:59:59;4.43;;;3.25;;
38479;SDS011;62333;51.980;5.934;2023-08-06T03:02:24;5.20;;;2.85;;
38479;SDS011;62333;51.980;5.934;2023-08-06T03:04:50;4.70;;;3.10;;
38479;SDS011;62333;51.980;5.934;2023-08-06T03:07:16;3.75;;;2.63;;
38479;SDS011;62333;51.980;5.934;2023-08-06T03:09:41;4.50;;;3.47;;
38479;SDS011;62333;51.980;5.934;2023-08-06T03:12:07;5.80;;;2.88;;
38479;SDS011;62333;51.980;5.934;2023-08-06T03:14:33;2.97;;;2.30;;
38479;SDS011;62333;51.980;5.934;2023-08-06T03:16:58;4.13;;;2.88;;
38479;SDS011;62333;51.980;5.934;2023-08-06T03:19:24;4.05;;;2.72;;
38479;SDS011;62333;51.980;5.934;2023-08-06T03:21:50;4.38;;;2.95;;
38479;SDS011;62333;51.980;5.934;2023-08-06T03:24:15;2.47;;;1.52;;
38479;SDS011;62333;51.980;5.934;2023-08-06T03:26:41;4.32;;;2.40;;
38479;SDS011;62333;51.980;5.934;2023-08-06T03:29:07;3.35;;;1.98;;
38479;SDS011;62333;51.980;5.934;2023-08-06T03:31:32;3.72;;;2.10;;
38479;SDS011;62333;51.980;5.934;2023-08-06T03:33:58;4.22;;;2.08;;
38479;SDS011;62333;51.980;5.934;2023-08-06T03:36:23;4.05;;;2.83;;
38479;SDS011;62333;51.980;5.934;2023-08-06T03:38:49;3.25;;;1.80;;
38479;SDS011;62333;51.980;5.934;2023-08-06T03:41:15;3.72;;;2.33;;
38479;SDS011;62333;51.980;5.934;2023-08-06T03:43:40;4.28;;;2.60;;
38479;SDS011;62333;51.980;5.934;2023-08-06T03:46:06;3.63;;;2.20;;
38479;SDS011;62333;51.980;5.934;2023-08-06T03:48:32;3.55;;;2.40;;
38479;SDS011;62333;51.980;5.934;2023-08-06T03:50:57;5.97;;;2.33;;
38479;SDS011;62333;51.980;5.934;2023-08-06T03:53:25;3.45;;;1.85;;
38479;SDS011;62333;51.980;5.934;2023-08-06T03:55:51;4.38;;;2.58;;
38479;SDS011;62333;51.980;5.934;2023-08-06T03:58:17;4.00;;;2.22;;
38479;SDS011;62333;51.980;5.934;2023-08-06T04:00:42;3.88;;;2.78;;
38479;SDS011;62333;51.980;5.934;2023-08-06T04:03:08;4.30;;;1.80;;
38479;SDS011;62333;51.980;5.934;2023-08-06T04:05:33;7.63;;;2.95;;
38479;SDS011;62333;51.980;5.934;2023-08-06T04:07:59;4.32;;;2.33;;
38479;SDS011;62333;51.980;5.934;2023-08-06T04:10:25;3.95;;;2.35;;
38479;SDS011;62333;51.980;5.934;2023-08-06T04:12:50;3.67;;;2.40;;
38479;SDS011;62333;51.980;5.934;2023-08-06T04:15:16;3.33;;;2.15;;
38479;SDS011;62333;51.980;5.934;2023-08-06T04:17:42;4.05;;;3.00;;
38479;SDS011;62333;51.980;5.934;2023-08-06T04:20:07;4.25;;;2.42;;
38479;SDS011;62333;51.980;5.934;2023-08-06T04:22:35;3.10;;;2.22;;
38479;SDS011;62333;51.980;5.934;2023-08-06T04:25:00;3.30;;;2.10;;
38479;SDS011;62333;51.980;5.934;2023-08-06T04:27:26;4.35;;;2.75;;
38479;SDS011;62333;51.980;5.934;2023-08-06T04:29:52;3.65;;;2.20;;
38479;SDS011;62333;51.980;5.934;2023-08-06T04:32:17;3.15;;;2.30;;
38479;SDS011;62333;51.980;5.934;2023-08-06T04:34:44;3.50;;;2.20;;
38479;SDS011;62333;51.980;5.934;2023-08-06T04:37:10;4.82;;;2.40;;
38479;SDS011;62333;51.980;5.934;2023-08-06T04:39:35;4.53;;;3.13;;
38479;SDS011;62333;51.980;5.934;2023-08-06T04:42:01;5.78;;;2.70;;
38479;SDS011;62333;51.980;5.934;2023-08-06T04:44:27;4.50;;;2.88;;
38479;SDS011;62333;51.980;5.934;2023-08-06T04:46:52;6.25;;;3.60;;
38479;SDS011;62333;51.980;5.934;2023-08-06T04:49:21;3.70;;;2.50;;
38479;SDS011;62333;51.980;5.934;2023-08-06T04:51:47;4.70;;;3.10;;
38479;SDS011;62333;51.980;5.934;2023-08-06T04:54:13;6.57;;;2.95;;
38479;SDS011;62333;51.980;5.934;2023-08-06T04:56:38;4.50;;;3.35;;
38479;SDS011;62333;51.980;5.934;2023-08-06T04:59:04;4.15;;;3.17;;
38479;SDS011;62333;51.980;5.934;2023-08-06T05:01:31;4.10;;;3.13;;
38479;SDS011;62333;51.980;5.934;2023-08-06T05:03:56;4.15;;;3.20;;
38479;SDS011;62333;51.980;5.934;2023-08-06T05:06:22;4.82;;;4.20;;
38479;SDS011;62333;51.980;5.934;2023-08-06T05:08:47;3.75;;;2.78;;
38479;SDS011;62333;51.980;5.934;2023-08-06T05:11:13;7.20;;;3.97;;
38479;SDS011;62333;51.980;5.934;2023-08-06T05:13:39;6.43;;;3.35;;
38479;SDS011;62333;51.980;5.934;2023-08-06T05:16:04;6.13;;;3.13;;
38479;SDS011;62333;51.980;5.934;2023-08-06T05:18:30;9.05;;;4.25;;
38479;SDS011;62333;51.980;5.934;2023-08-06T05:20:56;5.40;;;3.45;;
38479;SDS011;62333;51.980;5.934;2023-08-06T05:23:22;4.53;;;3.38;;
38479;SDS011;62333;51.980;5.934;2023-08-06T05:25:47;5.10;;;3.85;;
38479;SDS011;62333;51.980;5.934;2023-08-06T05:28:13;5.13;;;3.58;;
38479;SDS011;62333;51.980;5.934;2023-08-06T05:30:39;5.88;;;3.47;;
38479;SDS011;62333;51.980;5.934;2023-08-06T05:33:05;5.00;;;3.22;;
38479;SDS011;62333;51.980;5.934;2023-08-06T05:35:31;6.97;;;4.53;;
38479;SDS011;62333;51.980;5.934;2023-08-06T05:37:57;6.25;;;4.40;;
38479;SDS011;62333;51.980;5.934;2023-08-06T05:40:22;5.93;;;4.55;;
38479;SDS011;62333;51.980;5.934;2023-08-06T05:42:50;5.72;;;4.43;;
38479;SDS011;62333;51.980;5.934;2023-08-06T05:45:16;7.00;;;4.65;;
38479;SDS011;62333;51.980;5.934;2023-08-06T05:47:42;6.32;;;5.18;;
38479;SDS011;62333;51.980;5.934;2023-08-06T05:50:08;6.28;;;4.95;;
38479;SDS011;62333;51.980;5.934;2023-08-06T05:52:34;5.25;;;4.47;;
38479;SDS011;62333;51.980;5.934;2023-08-06T05:54:59;6.65;;;5.78;;
38479;SDS011;62333;51.980;5.934;2023-08-06T05:57:25;7.75;;;6.18;;
38479;SDS011;62333;51.980;5.934;2023-08-06T05:59:51;7.72;;;6.20;;
38479;SDS011;62333;51.980;5.934;2023-08-06T06:02:16;9.10;;;5.80;;
38479;SDS011;62333;51.980;5.934;2023-08-06T06:04:43;8.55;;;6.53;;
38479;SDS011;62333;51.980;5.934;2023-08-06T06:07:09;7.32;;;6.07;;
38479;SDS011;62333;51.980;5.934;2023-08-06T06:09:35;8.32;;;7.13;;
38479;SDS011;62333;51.980;5.934;2023-08-06T06:12:00;9.85;;;7.90;;
38479;SDS011;62333;51.980;5.934;2023-08-06T06:14:26;7.75;;;6.57;;
38479;SDS011;62333;51.980;5.934;2023-08-06T06:16:52;7.28;;;6.57;;
38479;SDS011;62333;51.980;5.934;2023-08-06T06:19:18;6.80;;;6.10;;
38479;SDS011;62333;51.980;5.934;2023-08-06T06:21:43;9.00;;;8.10;;
38479;SDS011;62333;51.980;5.934;2023-08-06T06:24:09;9.25;;;6.45;;
38479;SDS011;62333;51.980;5.934;2023-08-06T06:26:35;7.85;;;6.97;;
38479;SDS011;62333;51.980;5.934;2023-08-06T06:29:00;7.90;;;6.47;;
38479;SDS011;62333;51.980;5.934;2023-08-06T06:31:27;7.18;;;6.40;;
38479;SDS011;62333;51.980;5.934;2023-08-06T06:33:52;6.78;;;6.05;;
38479;SDS011;62333;51.980;5.934;2023-08-06T06:36:19;7.15;;;6.15;;
38479;SDS011;62333;51.980;5.934;2023-08-06T06:38:45;6.22;;;5.43;;
38479;SDS011;62333;51.980;5.934;2023-08-06T06:41:11;7.47;;;5.65;;
38479;SDS011;62333;51.980;5.934;2023-08-06T06:43:36;6.00;;;5.32;;
38479;SDS011;62333;51.980;5.934;2023-08-06T06:46:04;7.68;;;5.78;;
38479;SDS011;62333;51.980;5.934;2023-08-06T06:48:31;7.40;;;6.07;;
38479;SDS011;62333;51.980;5.934;2023-08-06T06:50:58;5.65;;;5.05;;
38479;SDS011;62333;51.980;5.934;2023-08-06T06:53:24;8.20;;;5.10;;
38479;SDS011;62333;51.980;5.934;2023-08-06T06:55:55;4.65;;;4.00;;
38479;SDS011;62333;51.980;5.934;2023-08-06T06:58:26;6.00;;;4.50;;
38479;SDS011;62333;51.980;5.934;2023-08-06T07:00:51;7.47;;;5.10;;
38479;SDS011;62333;51.980;5.934;2023-08-06T07:03:17;6.10;;;5.07;;
38479;SDS011;62333;51.980;5.934;2023-08-06T07:05:44;6.22;;;4.80;;
38479;SDS011;62333;51.980;5.934;2023-08-06T07:08:10;6.00;;;4.68;;
38479;SDS011;62333;51.980;5.934;2023-08-06T07:10:36;5.00;;;3.95;;
38479;SDS011;62333;51.980;5.934;2023-08-06T07:13:02;5.78;;;4.65;;
38479;SDS011;62333;51.980;5.934;2023-08-06T07:15:28;6.38;;;3.70;;
38479;SDS011;62333;51.980;5.934;2023-08-06T07:17:53;5.95;;;3.97;;
38479;SDS011;62333;51.980;5.934;2023-08-06T07:20:19;6.20;;;4.30;;
38479;SDS011;62333;51.980;5.934;2023-08-06T07:22:45;4.90;;;3.90;;
38479;SDS011;62333;51.980;5.934;2023-08-06T07:25:10;4.53;;;3.88;;
38479;SDS011;62333;51.980;5.934;2023-08-06T07:27:36;5.00;;;4.15;;
38479;SDS011;62333;51.980;5.934;2023-08-06T07:30:02;5.13;;;4.63;;
38479;SDS011;62333;51.980;5.934;2023-08-06T07:32:30;4.93;;;4.00;;
38479;SDS011;62333;51.980;5.934;2023-08-06T07:34:56;6.20;;;4.60;;
38479;SDS011;62333;51.980;5.934;2023-08-06T07:37:25;5.78;;;4.85;;
38479;SDS011;62333;51.980;5.934;2023-08-06T07:39:53;5.22;;;3.67;;
38479;SDS011;62333;51.980;5.934;2023-08-06T07:42:19;6.65;;;3.78;;
38479;SDS011;62333;51.980;5.934;2023-08-06T07:44:50;6.72;;;3.45;;
38479;SDS011;62333;51.980;5.934;2023-08-06T07:47:19;4.20;;;3.22;;
38479;SDS011;62333;51.980;5.934;2023-08-06T07:49:45;3.80;;;3.30;;
38479;SDS011;62333;51.980;5.934;2023-08-06T07:52:11;4.50;;;3.58;;
38479;SDS011;62333;51.980;5.934;2023-08-06T07:54:36;5.03;;;3.90;;
38479;SDS011;62333;51.980;5.934;2023-08-06T07:57:02;4.45;;;3.42;;
38479;SDS011;62333;51.980;5.934;2023-08-06T07:59:28;3.20;;;2.47;;
38479;SDS011;62333;51.980;5.934;2023-08-06T08:01:53;4.30;;;3.58;;
38479;SDS011;62333;51.980;5.934;2023-08-06T08:04:19;7.93;;;4.35;;
38479;SDS011;62333;51.980;5.934;2023-08-06T08:06:46;5.78;;;4.45;;
38479;SDS011;62333;51.980;5.934;2023-08-06T08:09:12;4.20;;;2.88;;
38479;SDS011;62333;51.980;5.934;2023-08-06T08:11:39;5.30;;;4.05;;
38479;SDS011;62333;51.980;5.934;2023-08-06T08:14:05;3.70;;;3.30;;
38479;SDS011;62333;51.980;5.934;2023-08-06T08:16:31;3.58;;;2.85;;
38479;SDS011;62333;51.980;5.934;2023-08-06T08:18:56;4.68;;;3.78;;
38479;SDS011;62333;51.980;5.934;2023-08-06T08:21:22;3.90;;;3.33;;
38479;SDS011;62333;51.980;5.934;2023-08-06T08:23:49;4.47;;;3.55;;
38479;SDS011;62333;51.980;5.934;2023-08-06T08:26:15;4.72;;;4.13;;
38479;SDS011;62333;51.980;5.934;2023-08-06T08:28:41;4.72;;;3.40;;
38479;SDS011;62333;51.980;5.934;2023-08-06T08:31:10;4.80;;;3.55;;
38479;SDS011;62333;51.980;5.934;2023-08-06T08:33:36;5.82;;;4.40;;
38479;SDS011;62333;51.980;5.934;2023-08-06T08:36:03;5.05;;;4.10;;
38479;SDS011;62333;51.980;5.934;2023-08-06T08:38:29;3.33;;;2.97;;
38479;SDS011;62333;51.980;5.934;2023-08-06T08:40:54;3.97;;;2.70;;
38479;SDS011;62333;51.980;5.934;2023-08-06T08:43:21;4.80;;;4.30;;
38479;SDS011;62333;51.980;5.934;2023-08-06T08:45:49;5.72;;;4.40;;
38479;SDS011;62333;51.980;5.934;2023-08-06T08:48:16;4.95;;;4.03;;
38479;SDS011;62333;51.980;5.934;2023-08-06T08:50:44;4.88;;;3.58;;
38479;SDS011;62333;51.980;5.934;2023-08-06T08:53:10;4.40;;;3.85;;
38479;SDS011;62333;51.980;5.934;2023-08-06T08:55:37;5.57;;;4.68;;
38479;SDS011;62333;51.980;5.934;2023-08-06T08:58:04;4.43;;;3.55;;
38479;SDS011;62333;51.980;5.934;2023-08-06T09:00:30;5.07;;;3.33;;
38479;SDS011;62333;51.980;5.934;2023-08-06T09:02:56;5.22;;;4.15;;
38479;SDS011;62333;51.980;5.934;2023-08-06T09:05:23;7.22;;;3.88;;
38479;SDS011;62333;51.980;5.934;2023-08-06T09:07:53;5.47;;;4.25;;
38479;SDS011;62333;51.980;5.934;2023-08-06T09:10:20;4.10;;;2.97;;
38479;SDS011;62333;51.980;5.934;2023-08-06T09:12:48;3.83;;;3.33;;
38479;SDS011;62333;51.980;5.934;2023-08-06T09:15:16;4.38;;;3.85;;
38479;SDS011;62333;51.980;5.934;2023-08-06T09:17:41;4.78;;;3.08;;
38479;SDS011;62333;51.980;5.934;2023-08-06T09:20:11;4.90;;;3.30;;
38479;SDS011;62333;51.980;5.934;2023-08-06T09:22:37;4.63;;;3.45;;
38479;SDS011;62333;51.980;5.934;2023-08-06T09:25:04;3.80;;;3.33;;
38479;SDS011;62333;51.980;5.934;2023-08-06T09:27:34;5.47;;;3.72;;
38479;SDS011;62333;51.980;5.934;2023-08-06T09:30:02;3.65;;;2.80;;
38479;SDS011;62333;51.980;5.934;2023-08-06T09:32:39;3.63;;;2.85;;
38479;SDS011;62333;51.980;5.934;2023-08-06T09:35:16;3.35;;;2.85;;
38479;SDS011;62333;51.980;5.934;2023-08-06T09:37:43;4.05;;;2.65;;
38479;SDS011;62333;51.980;5.934;2023-08-06T09:40:24;3.85;;;2.88;;
38479;SDS011;62333;51.980;5.934;2023-08-06T09:42:51;3.85;;;2.45;;
38479;SDS011;62333;51.980;5.934;2023-08-06T09:45:17;3.28;;;1.85;;
38479;SDS011;62333;51.980;5.934;2023-08-06T09:47:43;3.95;;;2.80;;
38479;SDS011;62333;51.980;5.934;2023-08-06T09:50:18;3.00;;;2.35;;
38479;SDS011;62333;51.980;5.934;2023-08-06T09:52:44;4.15;;;2.28;;
38479;SDS011;62333;51.980;5.934;2023-08-06T09:55:12;5.47;;;2.70;;
38479;SDS011;62333;51.980;5.934;2023-08-06T09:57:39;3.55;;;2.75;;
38479;SDS011;62333;51.980;5.934;2023-08-06T10:00:07;3.40;;;2.63;;
38479;SDS011;62333;51.980;5.934;2023-08-06T10:02:40;3.42;;;2.80;;
38479;SDS011;62333;51.980;5.934;2023-08-06T10:05:07;3.50;;;2.90;;
38479;SDS011;62333;51.980;5.934;2023-08-06T10:07:33;4.05;;;2.60;;
38479;SDS011;62333;51.980;5.934;2023-08-06T10:09:59;3.45;;;2.42;;
38479;SDS011;62333;51.980;5.934;2023-08-06T10:12:26;3.05;;;2.03;;
38479;SDS011;62333;51.980;5.934;2023-08-06T10:14:57;4.30;;;2.47;;
38479;SDS011;62333;51.980;5.934;2023-08-06T10:17:24;3.38;;;2.10;;
38479;SDS011;62333;51.980;5.934;2023-08-06T10:19:52;3.35;;;1.67;;
38479;SDS011;62333;51.980;5.934;2023-08-06T10:22:20;4.70;;;2.35;;
38479;SDS011;62333;51.980;5.934;2023-08-06T10:27:29;4.40;;;2.15;;
38479;SDS011;62333;51.980;5.934;2023-08-06T10:30:58;4.47;;;3.40;;
38479;SDS011;62333;51.980;5.934;2023-08-06T10:38:13;5.03;;;3.05;;
38479;SDS011;62333;51.980;5.934;2023-08-06T10:41:02;3.35;;;2.30;;
38479;SDS011;62333;51.980;5.934;2023-08-06T10:46:03;1.92;;;0.60;;
38479;SDS011;62333;51.980;5.934;2023-08-06T10:48:38;1.38;;;0.45;;
38479;SDS011;62333;51.980;5.934;2023-08-06T10:51:12;5.40;;;2.97;;
38479;SDS011;62333;51.980;5.934;2023-08-06T10:53:46;4.38;;;2.85;;
38479;SDS011;62333;51.980;5.934;2023-08-06T10:58:43;1.83;;;0.55;;
38479;SDS011;62333;51.980;5.934;2023-08-06T11:01:10;0.95;;;0.30;;
38479;SDS011;62333;51.980;5.934;2023-08-06T11:03:37;1.10;;;0.30;;
38479;SDS011;62333;51.980;5.934;2023-08-06T11:06:03;1.65;;;0.30;;
38479;SDS011;62333;51.980;5.934;2023-08-06T11:08:33;1.30;;;0.40;;
38479;SDS011;62333;51.980;5.934;2023-08-06T11:11:12;1.00;;;0.30;;
38479;SDS011;62333;51.980;5.934;2023-08-06T11:13:40;1.10;;;0.20;;
38479;SDS011;62333;51.980;5.934;2023-08-06T11:16:07;1.40;;;0.35;;
38479;SDS011;62333;51.980;5.934;2023-08-06T11:18:34;0.80;;;0.20;;
38479;SDS011;62333;51.980;5.934;2023-08-06T11:21:00;2.92;;;1.17;;
38479;SDS011;62333;51.980;5.934;2023-08-06T11:23:27;1.23;;;0.20;;
38479;SDS011;62333;51.980;5.934;2023-08-06T11:25:56;2.15;;;0.20;;
38479;SDS011;62333;51.980;5.934;2023-08-06T11:28:23;1.10;;;0.45;;
38479;SDS011;62333;51.980;5.934;2023-08-06T11:30:49;0.30;;;0.20;;
38479;SDS011;62333;51.980;5.934;2023-08-06T11:33:25;1.60;;;0.40;;
38479;SDS011;62333;51.980;5.934;2023-08-06T11:35:51;1.58;;;0.30;;
38479;SDS011;62333;51.980;5.934;2023-08-06T11:38:19;2.33;;;0.30;;
38479;SDS011;62333;51.980;5.934;2023-08-06T11:40:45;0.98;;;0.30;;
38479;SDS011;62333;51.980;5.934;2023-08-06T11:43:12;1.77;;;0.63;;
38479;SDS011;62333;51.980;5.934;2023-08-06T11:45:38;2.08;;;0.63;;
38479;SDS011;62333;51.980;5.934;2023-08-06T11:48:04;1.27;;;0.40;;
38479;SDS011;62333;51.980;5.934;2023-08-06T11:50:31;3.08;;;0.65;;
38479;SDS011;62333;51.980;5.934;2023-08-06T11:52:59;1.70;;;0.60;;
38479;SDS011;62333;51.980;5.934;2023-08-06T11:55:26;1.70;;;0.70;;
38479;SDS011;62333;51.980;5.934;2023-08-06T11:57:53;1.58;;;0.40;;
38479;SDS011;62333;51.980;5.934;2023-08-06T12:00:20;1.40;;;0.40;;
38479;SDS011;62333;51.980;5.934;2023-08-06T12:02:48;1.98;;;0.50;;
38479;SDS011;62333;51.980;5.934;2023-08-06T12:05:17;1.48;;;0.45;;
38479;SDS011;62333;51.980;5.934;2023-08-06T12:10:15;0.77;;;0.32;;
38479;SDS011;62333;51.980;5.934;2023-08-06T12:12:41;1.27;;;0.30;;
38479;SDS011;62333;51.980;5.934;2023-08-06T12:15:07;1.10;;;0.60;;
38479;SDS011;62333;51.980;5.934;2023-08-06T12:17:35;1.38;;;0.50;;
38479;SDS011;62333;51.980;5.934;2023-08-06T12:20:02;2.08;;;0.75;;
38479;SDS011;62333;51.980;5.934;2023-08-06T12:22:31;3.25;;;0.70;;
38479;SDS011;62333;51.980;5.934;2023-08-06T12:25:00;1.63;;;0.60;;
38479;SDS011;62333;51.980;5.934;2023-08-06T12:27:27;2.08;;;0.60;;
38479;SDS011;62333;51.980;5.934;2023-08-06T12:29:53;2.00;;;0.70;;
38479;SDS011;62333;51.980;5.934;2023-08-06T12:32:19;2.63;;;0.68;;
38479;SDS011;62333;51.980;5.934;2023-08-06T12:34:45;1.88;;;0.90;;
38479;SDS011;62333;51.980;5.934;2023-08-06T12:37:10;2.22;;;1.20;;
38479;SDS011;62333;51.980;5.934;2023-08-06T12:39:36;2.65;;;1.30;;
38479;SDS011;62333;51.980;5.934;2023-08-06T12:42:03;2.17;;;0.70;;
38479;SDS011;62333;51.980;5.934;2023-08-06T12:44:29;2.30;;;0.77;;
38479;SDS011;62333;51.980;5.934;2023-08-06T12:46:56;2.33;;;0.70;;
38479;SDS011;62333;51.980;5.934;2023-08-06T12:49:22;2.75;;;1.05;;
38479;SDS011;62333;51.980;5.934;2023-08-06T12:51:51;2.80;;;1.23;;
38479;SDS011;62333;51.980;5.934;2023-08-06T12:54:18;1.88;;;1.05;;
38479;SDS011;62333;51.980;5.934;2023-08-06T12:56:45;1.95;;;0.90;;
38479;SDS011;62333;51.980;5.934;2023-08-06T12:59:13;2.25;;;0.75;;
38479;SDS011;62333;51.980;5.934;2023-08-06T13:01:40;2.50;;;1.10;;
38479;SDS011;62333;51.980;5.934;2023-08-06T13:04:05;2.40;;;1.23;;
38479;SDS011;62333;51.980;5.934;2023-08-06T13:06:31;3.33;;;1.50;;
38479;SDS011;62333;51.980;5.934;2023-08-06T13:09:04;3.45;;;1.05;;
38479;SDS011;62333;51.980;5.934;2023-08-06T13:11:32;2.05;;;1.10;;
38479;SDS011;62333;51.980;5.934;2023-08-06T13:14:04;3.40;;;1.10;;
38479;SDS011;62333;51.980;5.934;2023-08-06T13:16:34;2.35;;;1.20;;
38479;SDS011;62333;51.980;5.934;2023-08-06T13:19:00;2.75;;;0.90;;
38479;SDS011;62333;51.980;5.934;2023-08-06T13:21:31;2.33;;;0.85;;
38479;SDS011;62333;51.980;5.934;2023-08-06T13:24:16;2.35;;;1.10;;
38479;SDS011;62333;51.980;5.934;2023-08-06T13:26:42;3.15;;;1.52;;
38479;SDS011;62333;51.980;5.934;2023-08-06T13:29:08;2.45;;;1.10;;
38479;SDS011;62333;51.980;5.934;2023-08-06T13:31:34;3.10;;;0.63;;
38479;SDS011;62333;51.980;5.934;2023-08-06T13:34:00;1.65;;;0.68;;
38479;SDS011;62333;51.980;5.934;2023-08-06T13:36:26;2.03;;;0.63;;
38479;SDS011;62333;51.980;5.934;2023-08-06T13:38:52;5.95;;;1.35;;
38479;SDS011;62333;51.980;5.934;2023-08-06T13:41:18;2.70;;;1.27;;
38479;SDS011;62333;51.980;5.934;2023-08-06T13:43:44;1.45;;;0.65;;
38479;SDS011;62333;51.980;5.934;2023-08-06T13:46:10;2.55;;;0.75;;
38479;SDS011;62333;51.980;5.934;2023-08-06T13:48:43;3.42;;;0.80;;
38479;SDS011;62333;51.980;5.934;2023-08-06T13:51:10;1.67;;;0.75;;
38479;SDS011;62333;51.980;5.934;2023-08-06T13:53:37;1.70;;;0.55;;
38479;SDS011;62333;51.980;5.934;2023-08-06T13:56:04;2.22;;;1.08;;
38479;SDS011;62333;51.980;5.934;2023-08-06T13:58:30;2.15;;;0.70;;
38479;SDS011;62333;51.980;5.934;2023-08-06T14:01:03;2.65;;;0.77;;
38479;SDS011;62333;51.980;5.934;2023-08-06T14:03:29;1.75;;;0.90;;
38479;SDS011;62333;51.980;5.934;2023-08-06T14:05:55;3.17;;;0.77;;
38479;SDS011;62333;51.980;5.934;2023-08-06T14:08:22;2.72;;;0.65;;
38479;SDS011;62333;51.980;5.934;2023-08-06T14:10:51;1.50;;;0.77;;
38479;SDS011;62333;51.980;5.934;2023-08-06T14:13:17;1.63;;;0.70;;
38479;SDS011;62333;51.980;5.934;2023-08-06T14:15:43;2.15;;;0.40;;
38479;SDS011;62333;51.980;5.934;2023-08-06T14:18:12;2.67;;;0.88;;
38479;SDS011;62333;51.980;5.934;2023-08-06T14:20:39;2.65;;;0.60;;
38479;SDS011;62333;51.980;5.934;2023-08-06T14:23:04;1.90;;;0.68;;
38479;SDS011;62333;51.980;5.934;2023-08-06T14:25:30;3.53;;;0.80;;
38479;SDS011;62333;51.980;5.934;2023-08-06T14:27:56;2.40;;;0.85;;
38479;SDS011;62333;51.980;5.934;2023-08-06T14:30:22;2.85;;;1.15;;
38479;SDS011;62333;51.980;5.934;2023-08-06T14:32:48;2.83;;;1.00;;
38479;SDS011;62333;51.980;5.934;2023-08-06T14:35:13;3.15;;;1.30;;
38479;SDS011;62333;51.980;5.934;2023-08-06T14:37:39;2.53;;;1.20;;
38479;SDS011;62333;51.980;5.934;2023-08-06T14:40:06;2.22;;;0.80;;
38479;SDS011;62333;51.980;5.934;2023-08-06T14:42:32;2.40;;;1.30;;
38479;SDS011;62333;51.980;5.934;2023-08-06T14:44:58;2.03;;;0.90;;
38479;SDS011;62333;51.980;5.934;2023-08-06T14:47:23;1.83;;;0.90;;
38479;SDS011;62333;51.980;5.934;2023-08-06T14:49:49;2.25;;;1.23;;
38479;SDS011;62333;51.980;5.934;2023-08-06T14:52:16;3.40;;;1.35;;
38479;SDS011;62333;51.980;5.934;2023-08-06T14:54:42;1.80;;;0.70;;
38479;SDS011;62333;51.980;5.934;2023-08-06T14:57:08;2.17;;;1.05;;
38479;SDS011;62333;51.980;5.934;2023-08-06T14:59:34;1.95;;;0.75;;
38479;SDS011;62333;51.980;5.934;2023-08-06T15:02:00;2.45;;;0.95;;
38479;SDS011;62333;51.980;5.934;2023-08-06T15:04:26;2.65;;;0.98;;
38479;SDS011;62333;51.980;5.934;2023-08-06T15:06:52;2.60;;;1.08;;
38479;SDS011;62333;51.980;5.934;2023-08-06T15:09:18;2.72;;;0.85;;